Time;durP1;ratioP1;P1;durP2;ratioP2;P2;SDS_P1;SDS_P2;PMS_P1;PMS_P2;Temp;Humidity;BMP_temperature;BMP_pressure;BME280_temperature;BME280_humidity;BME280_pressure;Samples;Min_cycle;Max_cycle;Signal;HPM_P1;HPM_P2
2021/01/23 00:02:10;;;;;;;0.98;0.98;;;;;;;1.46;84.14;98283.94;4897280;29;20031;-80
2021/01/23 00:04:39;;;;;;;1.65;1.30;;;;;;;1.38;83.33;98272.56;4911851;29;20024;-78
2021/01/23 00:07:16;;;;;;;0.70;0.70;;;;;;;1.25;83.48;98261.44;4899438;29;20035;-76
2021/01/23 00:09:44;;;;;;;0.22;0.22;;;;;;;1.09;83.61;98225.50;4907489;29;20023;-77
2021/01/23 00:12:18;;;;;;;0.20;0.20;;;;;;;1.24;83.25;98252.53;4901484;29;20032;-78
2021/01/23 00:14:51;;;;;;;2.33;0.40;;;;;;;1.18;83.62;98251.69;4898187;29;20124;-78
2021/01/23 00:17:17;;;;;;;0.80;0.20;;;;;;;1.09;84.13;98241.66;4900498;29;20127;-79
2021/01/23 00:19:43;;;;;;;0.10;0.10;;;;;;;1.07;83.64;98235.69;4910232;29;20039;-76
2021/01/23 00:22:16;;;;;;;0.75;0.17;;;;;;;0.95;84.17;98219.72;4899820;29;20363;-78
2021/01/23 00:24:41;;;;;;;0.30;0.20;;;;;;;1.08;84.82;98235.47;4905315;29;20036;-79
2021/01/23 00:27:07;;;;;;;0.13;0.13;;;;;;;0.94;83.96;98224.31;4900964;29;20044;-79
2021/01/23 00:29:32;;;;;;;0.55;0.30;;;;;;;0.99;84.88;98248.59;4883936;29;20181;-78
2021/01/23 00:32:03;;;;;;;2.15;1.90;;;;;;;1.11;84.16;98263.75;4885152;29;20036;-78
2021/01/23 00:34:31;;;;;;;3.55;1.98;;;;;;;1.11;84.22;98275.34;4897228;29;20061;-77
2021/01/23 00:36:58;;;;;;;4.85;2.22;;;;;;;1.11;84.68;98278.03;4914314;29;20040;-78
2021/01/23 00:39:29;;;;;;;4.63;2.63;;;;;;;1.05;84.47;98279.03;4902531;29;20044;-78
2021/01/23 00:41:54;;;;;;;2.22;2.13;;;;;;;0.96;84.02;98259.03;4930134;29;20036;-77
2021/01/23 00:44:20;;;;;;;4.32;3.13;;;;;;;0.95;83.70;98262.78;4912683;29;20068;-76
2021/01/23 00:46:46;;;;;;;4.63;2.35;;;;;;;0.95;83.59;98270.88;4933911;29;20036;-78
2021/01/23 00:49:11;;;;;;;2.45;2.35;;;;;;;0.81;83.90;98257.03;4912758;29;20052;-77
2021/01/23 00:51:39;;;;;;;2.00;1.63;;;;;;;0.85;84.91;98266.22;4915706;29;20035;-77
2021/01/23 00:54:05;;;;;;;4.40;2.67;;;;;;;0.83;84.66;98276.41;4920494;29;20507;-77
2021/01/23 00:56:30;;;;;;;14.65;3.22;;;;;;;0.73;84.07;98261.00;4908232;29;20032;-77
2021/01/23 00:58:56;;;;;;;3.55;3.00;;;;;;;0.88;84.54;98284.56;4914823;29;20030;-77
2021/01/23 01:01:21;;;;;;;4.15;2.80;;;;;;;0.80;84.62;98275.03;4907768;29;20032;-76
2021/01/23 01:03:47;;;;;;;5.55;2.40;;;;;;;0.84;84.79;98289.63;4910717;29;20059;-76
2021/01/23 01:06:12;;;;;;;5.40;1.80;;;;;;;0.73;84.94;98274.47;4891968;29;20024;-78
2021/01/23 01:08:39;;;;;;;2.13;1.92;;;;;;;0.77;84.53;98278.25;4921576;29;20042;-77
2021/01/23 01:11:05;;;;;;;4.60;2.08;;;;;;;0.73;85.33;98281.69;4924143;29;20471;-77
2021/01/23 01:13:30;;;;;;;3.50;2.50;;;;;;;0.67;84.07;98270.06;4922316;29;20032;-76
2021/01/23 01:16:01;;;;;;;4.07;2.42;;;;;;;0.60;84.81;98269.47;4920748;29;20456;-78
2021/01/23 01:18:26;;;;;;;3.97;1.63;;;;;;;0.57;84.69;98259.22;4906143;29;20036;-76
2021/01/23 01:20:52;;;;;;;1.65;1.55;;;;;;;0.42;85.37;98239.16;4923700;29;20095;-75
2021/01/23 01:23:19;;;;;;;1.55;0.90;;;;;;;0.60;85.12;98277.53;4919854;29;20029;-77
2021/01/23 01:25:53;;;;;;;1.83;1.55;;;;;;;0.48;84.33;98259.69;4911652;29;20064;-77
2021/01/23 01:28:23;;;;;;;2.08;1.98;;;;;;;0.61;85.35;98279.97;4910244;29;20116;-79
2021/01/23 01:30:49;;;;;;;6.38;2.03;;;;;;;0.62;84.80;98275.41;4902139;29;20119;-77
2021/01/23 01:33:44;;;;;;;3.30;1.70;;;;;;;0.71;85.61;98276.56;4902766;29;20040;-80
2021/01/23 01:36:10;;;;;;;4.93;1.25;;;;;;;0.67;86.09;98272.75;4904217;29;20044;-79
2021/01/23 01:38:36;;;;;;;5.40;1.10;;;;;;;0.51;85.72;98240.34;4922661;29;20039;-78
2021/01/23 01:41:12;;;;;;;1.65;1.27;;;;;;;0.52;85.98;98233.88;4929469;29;20048;-80
2021/01/23 01:43:44;;;;;;;3.33;1.25;;;;;;;0.66;84.70;98266.59;4914010;29;20032;-81
2021/01/23 01:46:10;;;;;;;1.02;1.00;;;;;;;0.52;84.47;98244.66;4924055;29;20028;-77
2021/01/23 01:48:37;;;;;;;3.33;1.70;;;;;;;0.49;85.77;98257.81;4925267;29;20503;-79
2021/01/23 01:51:03;;;;;;;3.42;1.35;;;;;;;0.57;85.74;98272.66;4929459;29;20419;-81
2021/01/23 01:53:29;;;;;;;1.75;1.30;;;;;;;0.57;85.12;98269.97;4902110;29;20048;-76
2021/01/23 01:55:56;;;;;;;1.35;1.08;;;;;;;0.58;85.46;98271.59;4923884;29;20040;-76
2021/01/23 01:58:21;;;;;;;2.42;1.63;;;;;;;0.58;85.69;98264.34;4920171;29;20032;-78
2021/01/23 02:00:47;;;;;;;1.17;1.08;;;;;;;0.56;85.47;98271.06;4920686;29;20170;-77
2021/01/23 02:03:31;;;;;;;3.33;0.88;;;;;;;0.57;85.30;98273.50;4905126;29;20032;-78
2021/01/23 02:06:27;;;;;;;5.63;1.58;;;;;;;0.57;84.73;98262.75;4929740;29;20048;-76
2021/01/23 02:09:01;;;;;;;4.13;2.20;;;;;;;0.59;86.05;98259.78;4929797;29;20024;-76
2021/01/23 02:12:03;;;;;;;4.13;1.80;;;;;;;0.58;86.19;98258.16;4931898;29;20052;-77
2021/01/23 02:14:37;;;;;;;7.72;1.30;;;;;;;0.54;85.39;98248.97;4920442;29;20043;-78
2021/01/23 02:17:08;;;;;;;5.28;1.33;;;;;;;0.49;85.82;98250.53;4931093;29;20035;-78
2021/01/23 02:19:46;;;;;;;1.13;0.90;;;;;;;0.46;85.34;98245.66;4915469;29;20035;-77
2021/01/23 02:22:31;;;;;;;3.03;1.23;;;;;;;0.30;85.67;98219.69;4925395;29;20032;-76
2021/01/23 02:25:00;;;;;;;0.85;0.85;;;;;;;0.37;85.91;98239.13;4903589;29;20020;-78
2021/01/23 02:27:49;;;;;;;1.50;0.93;;;;;;;0.30;85.69;98233.13;4908694;29;20059;-79
2021/01/23 02:30:21;;;;;;;0.98;0.95;;;;;;;0.33;85.04;98238.00;4896831;29;20623;-77
2021/01/23 02:32:51;;;;;;;1.85;1.38;;;;;;;0.33;85.73;98232.63;4906025;29;20088;-77
2021/01/23 02:35:18;;;;;;;1.13;1.05;;;;;;;0.31;84.90;98227.50;4894908;29;20096;-78
2021/01/23 02:37:45;;;;;;;0.93;0.93;;;;;;;0.25;85.38;98216.94;4905297;29;20036;-76
2021/01/23 02:40:12;;;;;;;7.22;1.35;;;;;;;0.36;85.93;98229.44;4907338;29;20620;-78
2021/01/23 02:42:37;;;;;;;3.75;1.52;;;;;;;0.38;85.74;98232.69;4894677;29;20032;-77
2021/01/23 02:45:10;;;;;;;3.08;1.58;;;;;;;0.35;85.25;98217.03;4903999;29;20036;-77
2021/01/23 02:47:37;;;;;;;1.42;1.33;;;;;;;0.46;86.24;98223.34;4896382;29;20024;-76
2021/01/23 02:50:04;;;;;;;2.25;1.45;;;;;;;0.43;85.49;98216.59;4892809;29;20455;-76
2021/01/23 02:52:41;;;;;;;2.92;1.48;;;;;;;0.57;85.22;98226.94;4872362;29;20029;-77
2021/01/23 02:55:11;;;;;;;3.00;1.77;;;;;;;0.56;86.08;98211.88;4891763;29;20025;-78
2021/01/23 02:57:41;;;;;;;3.35;1.35;;;;;;;0.63;86.37;98223.25;4893448;29;20127;-78
2021/01/23 03:00:09;;;;;;;2.20;1.10;;;;;;;0.65;85.70;98223.78;4881993;29;20424;-77
2021/01/23 03:02:43;;;;;;;1.20;0.95;;;;;;;0.64;86.16;98211.41;4894564;29;20365;-76
2021/01/23 03:05:11;;;;;;;2.07;1.07;;;;;;;0.67;86.55;98213.59;4891292;29;20032;-77
2021/01/23 03:07:37;;;;;;;3.80;0.63;;;;;;;0.70;85.33;98210.38;4892648;29;20028;-77
2021/01/23 03:10:09;;;;;;;4.00;1.70;;;;;;;0.70;85.86;98205.00;4895118;29;20132;-78
2021/01/23 03:12:35;;;;;;;1.77;1.67;;;;;;;0.73;86.04;98201.00;4879540;29;20075;-77
2021/01/23 03:15:00;;;;;;;3.08;0.77;;;;;;;0.72;85.90;98194.81;4893380;29;20033;-78
2021/01/23 03:17:26;;;;;;;6.65;0.85;;;;;;;0.69;86.00;98185.38;4889888;29;20032;-78
2021/01/23 03:19:51;;;;;;;1.55;1.02;;;;;;;0.72;85.78;98192.13;4885480;29;20119;-78
2021/01/23 03:22:20;;;;;;;2.85;1.17;;;;;;;0.77;85.40;98202.91;4897890;29;20085;-78
2021/01/23 03:24:45;;;;;;;2.85;1.48;;;;;;;0.74;86.47;98198.03;4894486;29;20083;-79
2021/01/23 03:27:11;;;;;;;0.47;0.40;;;;;;;0.79;85.95;98200.78;4897585;29;20028;-77
2021/01/23 03:29:37;;;;;;;0.32;0.30;;;;;;;0.82;86.37;98205.66;4897430;29;20045;-77
2021/01/23 03:32:02;;;;;;;0.22;0.22;;;;;;;0.84;85.66;98198.13;4854510;29;20024;-77
2021/01/23 03:34:28;;;;;;;1.85;0.47;;;;;;;0.89;85.88;98204.63;4890894;29;20032;-78
2021/01/23 03:36:53;;;;;;;0.20;0.20;;;;;;;0.91;85.42;98202.50;4875402;29;20039;-78
2021/01/23 03:39:18;;;;;;;0.10;0.10;;;;;;;0.92;85.97;98201.41;4880500;29;20037;-79
2021/01/23 03:41:44;;;;;;;0.00;0.00;;;;;;;0.87;86.14;98180.66;4876878;29;20032;-80
2021/01/23 03:44:11;;;;;;;0.50;0.38;;;;;;;0.87;85.91;98181.47;4886159;29;20105;-79
2021/01/23 03:46:36;;;;;;;0.20;0.20;;;;;;;0.97;86.41;98190.69;4903983;29;20048;-79
2021/01/23 03:49:02;;;;;;;0.30;0.28;;;;;;;0.92;86.01;98182.56;4892782;29;20036;-79
2021/01/23 03:51:28;;;;;;;0.40;0.40;;;;;;;0.97;85.07;98201.47;4883650;29;20025;-79
2021/01/23 03:53:53;;;;;;;0.32;0.32;;;;;;;0.97;85.08;98196.09;4889592;29;20116;-78
2021/01/23 03:56:19;;;;;;;1.65;0.82;;;;;;;1.00;85.56;98200.94;4890803;29;20035;-77
2021/01/23 03:58:44;;;;;;;0.80;0.80;;;;;;;0.98;85.64;98195.00;4892906;29;20089;-79
2021/01/23 04:01:10;;;;;;;3.20;0.55;;;;;;;0.99;86.18;98189.38;4890284;29;20064;-78
2021/01/23 04:03:35;;;;;;;0.20;0.20;;;;;;;1.00;85.48;98184.81;4890411;29;20063;-78
2021/01/23 04:06:01;;;;;;;0.20;0.17;;;;;;;1.00;85.62;98168.66;4871352;29;20040;-77
2021/01/23 04:08:26;;;;;;;3.72;0.20;;;;;;;0.99;85.65;98161.63;4894397;29;20025;-78
2021/01/23 04:10:52;;;;;;;0.20;0.20;;;;;;;1.05;85.27;98165.97;4897321;29;20041;-79
2021/01/23 04:13:17;;;;;;;0.30;0.25;;;;;;;1.06;85.72;98164.13;4898340;29;20113;-78
2021/01/23 04:15:43;;;;;;;0.10;0.10;;;;;;;1.03;85.64;98155.47;4886202;29;20060;-78
2021/01/23 04:18:09;;;;;;;0.30;0.30;;;;;;;1.03;85.75;98157.38;4883703;29;20076;-79
2021/01/23 04:20:34;;;;;;;0.10;0.10;;;;;;;1.03;85.13;98168.13;4881942;29;20740;-78
2021/01/23 04:23:02;;;;;;;0.93;0.30;;;;;;;1.00;85.01;98163.25;4873568;29;20029;-77
2021/01/23 04:25:28;;;;;;;0.40;0.40;;;;;;;1.01;86.01;98159.50;4892877;29;20157;-78
2021/01/23 04:27:54;;;;;;;0.30;0.30;;;;;;;1.01;85.55;98164.91;4892527;29;20048;-78
2021/01/23 04:30:22;;;;;;;1.85;1.25;;;;;;;1.00;85.25;98163.25;4893863;29;20055;-77
2021/01/23 04:32:48;;;;;;;1.75;1.05;;;;;;;0.93;84.54;98159.97;4911029;29;20032;-76
2021/01/23 04:35:13;;;;;;;3.97;1.10;;;;;;;0.80;84.61;98153.97;4920485;29;20043;-77
2021/01/23 04:37:39;;;;;;;0.90;0.90;;;;;;;0.78;84.21;98161.50;4893280;29;20096;-78
2021/01/23 04:40:06;;;;;;;1.02;0.73;;;;;;;0.75;85.09;98153.94;4897296;29;20456;-78
2021/01/23 04:42:32;;;;;;;0.30;0.30;;;;;;;0.75;85.49;98142.38;4911829;29;20081;-77
2021/01/23 04:44:57;;;;;;;0.90;0.30;;;;;;;0.76;84.93;98152.03;4895809;29;20043;-78
2021/01/23 04:47:22;;;;;;;0.20;0.20;;;;;;;0.76;85.26;98143.97;4914378;29;20077;-78
2021/01/23 04:49:48;;;;;;;0.30;0.30;;;;;;;0.76;85.26;98136.72;4888511;29;20036;-77
2021/01/23 04:52:14;;;;;;;0.10;0.10;;;;;;;0.79;85.37;98146.16;4913118;29;20028;-76
2021/01/23 04:54:43;;;;;;;0.75;0.30;;;;;;;0.80;84.90;98145.88;4915530;29;20032;-77
2021/01/23 04:57:09;;;;;;;0.43;0.15;;;;;;;0.83;85.81;98136.50;4919221;29;20028;-76
2021/01/23 04:59:34;;;;;;;0.35;0.15;;;;;;;0.85;86.13;98142.44;4911517;29;20029;-75
2021/01/23 05:02:18;;;;;;;0.10;0.10;;;;;;;0.88;86.10;98144.63;4910010;29;20032;-76
2021/01/23 05:04:47;;;;;;;0.20;0.20;;;;;;;0.87;84.69;98151.06;4893618;29;20126;-75
2021/01/23 05:07:27;;;;;;;0.38;0.20;;;;;;;0.84;84.75;98144.31;4886627;29;20036;-75
2021/01/23 05:09:54;;;;;;;0.90;0.30;;;;;;;0.85;85.72;98156.69;4911909;29;20028;-75
2021/01/23 05:12:45;;;;;;;1.45;0.65;;;;;;;0.83;86.01;98148.09;4889739;29;20042;-75
2021/01/23 05:15:19;;;;;;;0.10;0.10;;;;;;;0.79;84.94;98146.97;4915091;29;20032;-75
2021/01/23 05:17:49;;;;;;;0.10;0.10;;;;;;;0.82;84.73;98157.22;4913754;29;20024;-76
2021/01/23 05:20:45;;;;;;;0.17;0.17;;;;;;;0.79;85.40;98152.38;4880848;29;20506;-76
2021/01/23 05:23:40;;;;;;;0.20;0.20;;;;;;;0.80;85.29;98147.78;4896703;29;20479;-78
2021/01/23 05:26:08;;;;;;;0.20;0.15;;;;;;;0.66;84.41;98140.16;4894168;29;20040;-79
2021/01/23 05:28:37;;;;;;;0.20;0.20;;;;;;;0.76;85.55;98163.63;4898135;29;20104;-80
2021/01/23 05:31:07;;;;;;;0.35;0.20;;;;;;;0.76;85.83;98157.44;4906167;29;20086;-77
2021/01/23 05:33:36;;;;;;;0.43;0.30;;;;;;;0.71;85.48;98154.72;4898375;29;20039;-78
2021/01/23 05:36:08;;;;;;;0.30;0.30;;;;;;;0.70;84.54;98148.50;4908546;29;20032;-79
2021/01/23 05:38:41;;;;;;;0.20;0.20;;;;;;;0.78;84.75;98166.88;4915823;29;20020;-77
2021/01/23 05:41:08;;;;;;;0.20;0.20;;;;;;;0.78;85.40;98155.31;4893572;29;20471;-77
2021/01/23 05:43:47;;;;;;;0.38;0.10;;;;;;;0.79;84.38;98162.28;4895944;29;21281;-77
2021/01/23 05:46:25;;;;;;;0.22;0.10;;;;;;;0.74;84.98;98160.38;4910538;29;20091;-79
2021/01/23 05:48:51;;;;;;;0.10;0.10;;;;;;;0.73;85.01;98169.53;4893995;29;20035;-79
2021/01/23 05:51:20;;;;;;;0.20;0.10;;;;;;;0.74;84.70;98170.34;4915768;29;20110;-79
2021/01/23 05:53:47;;;;;;;0.25;0.25;;;;;;;0.67;85.42;98159.78;4883744;29;20059;-80
2021/01/23 05:56:12;;;;;;;0.22;0.22;;;;;;;0.59;85.00;98141.44;4908916;29;20468;-80
2021/01/23 05:58:41;;;;;;;0.10;0.10;;;;;;;0.74;84.90;98167.66;4876765;29;20054;-80
2021/01/23 06:01:17;;;;;;;0.20;0.20;;;;;;;0.74;84.41;98175.72;4916851;29;20471;-80
2021/01/23 06:03:48;;;;;;;0.10;0.10;;;;;;;0.65;85.81;98156.56;4914205;29;20569;-80
2021/01/23 06:06:13;;;;;;;0.10;0.10;;;;;;;0.74;84.96;98179.22;4903820;29;20032;-78
2021/01/23 06:08:46;;;;;;;0.20;0.20;;;;;;;0.72;85.23;98170.59;4912081;29;20450;-77
2021/01/23 06:11:17;;;;;;;0.10;0.10;;;;;;;0.73;85.42;98169.53;4898797;29;20032;-80
2021/01/23 06:13:45;;;;;;;0.20;0.20;;;;;;;0.70;85.02;98156.56;4907781;29;20037;-79
2021/01/23 06:16:32;;;;;;;0.30;0.30;;;;;;;0.73;85.36;98157.94;4898855;29;20051;-78
2021/01/23 06:19:16;;;;;;;0.40;0.40;;;;;;;0.70;85.77;98145.81;4927080;29;20032;-78
2021/01/23 06:21:48;;;;;;;0.10;0.10;;;;;;;0.72;85.08;98159.84;4927388;29;20028;-78
2021/01/23 06:24:15;;;;;;;0.40;0.40;;;;;;;0.64;84.63;98144.16;4922845;29;20045;-80
2021/01/23 06:27:09;;;;;;;0.25;0.20;;;;;;;0.76;84.58;98158.25;4902752;29;20032;-78
2021/01/23 06:29:37;;;;;;;1.50;0.30;;;;;;;0.76;84.87;98152.03;4890348;29;20067;-80
2021/01/23 06:32:11;;;;;;;0.35;0.35;;;;;;;0.76;85.05;98147.50;4899558;29;20028;-78
2021/01/23 06:34:47;;;;;;;0.45;0.32;;;;;;;0.67;84.86;98132.88;4898961;29;20032;-76
2021/01/23 06:37:23;;;;;;;0.20;0.20;;;;;;;0.67;84.69;98138.25;4915273;29;20059;-77
2021/01/23 06:40:09;;;;;;;3.80;0.30;;;;;;;0.69;84.89;98142.31;4909261;29;20127;-76
2021/01/23 06:42:42;;;;;;;0.40;0.40;;;;;;;0.75;85.27;98150.44;4920967;29;20020;-78
2021/01/23 06:45:11;;;;;;;0.70;0.70;;;;;;;0.65;85.35;98129.66;4920991;29;20115;-78
2021/01/23 06:47:43;;;;;;;0.52;0.50;;;;;;;0.65;84.90;98129.66;4896268;29;20487;-78
2021/01/23 06:50:24;;;;;;;0.75;0.75;;;;;;;0.66;85.55;98133.97;4879039;29;20471;-79
2021/01/23 06:52:53;;;;;;;1.75;0.70;;;;;;;0.86;85.41;98152.13;4907669;29;20096;-79
2021/01/23 06:55:46;;;;;;;0.32;0.32;;;;;;;0.91;85.93;98156.75;4898290;29;20028;-79
2021/01/23 06:58:20;;;;;;;0.50;0.50;;;;;;;0.91;85.49;98170.22;4907646;29;20035;-80
2021/01/23 07:00:47;;;;;;;0.65;0.57;;;;;;;0.93;84.90;98168.06;4900364;29;20032;-79
2021/01/23 07:03:14;;;;;;;0.60;0.60;;;;;;;0.93;84.97;98168.84;4918440;29;20024;-75
2021/01/23 07:05:53;;;;;;;0.30;0.30;;;;;;;0.95;85.84;98171.28;4914041;29;20656;-75
2021/01/23 07:08:37;;;;;;;0.28;0.28;;;;;;;0.95;85.47;98171.28;4909457;29;20036;-76
2021/01/23 07:11:12;;;;;;;0.30;0.30;;;;;;;0.81;85.91;98160.97;4906590;29;20054;-79
2021/01/23 07:13:55;;;;;;;1.40;0.40;;;;;;;0.82;85.39;98173.38;4914912;29;20047;-79
2021/01/23 07:16:22;;;;;;;2.50;1.00;;;;;;;0.67;84.41;98162.47;4906550;29;20043;-80
2021/01/23 07:18:58;;;;;;;0.60;0.60;;;;;;;0.67;84.48;98170.53;4920230;29;20044;-80
2021/01/23 07:21:31;;;;;;;1.00;1.00;;;;;;;0.61;84.86;98177.75;4916197;29;20036;-79
2021/01/23 07:23:59;;;;;;;0.47;0.47;;;;;;;0.33;84.92;98143.91;4894846;29;20039;-80
2021/01/23 07:26:25;;;;;;;0.30;0.30;;;;;;;0.44;85.61;98172.50;4910516;29;20045;-80
2021/01/23 07:28:56;;;;;;;0.40;0.40;;;;;;;0.44;85.48;98177.88;4884694;29;20041;-77
2021/01/23 07:31:25;;;;;;;0.47;0.40;;;;;;;0.46;84.94;98186.50;4889435;29;20103;-78
2021/01/23 07:33:51;;;;;;;0.45;0.45;;;;;;;0.38;85.44;98189.66;4899033;29;20391;-78
2021/01/23 07:36:27;;;;;;;0.25;0.25;;;;;;;0.24;84.92;98177.69;4898037;29;20816;-78
2021/01/23 07:38:53;;;;;;;0.55;0.50;;;;;;;0.22;85.25;98190.56;4874779;29;20033;-78
2021/01/23 07:41:19;;;;;;;0.30;0.30;;;;;;;0.21;85.79;98199.72;4850769;29;20107;-78
2021/01/23 07:43:47;;;;;;;0.30;0.30;;;;;;;0.23;84.87;98202.94;4900304;29;20483;-78
2021/01/23 07:46:13;;;;;;;0.43;0.40;;;;;;;0.05;85.48;98186.09;4890001;29;20032;-79
2021/01/23 07:48:40;;;;;;;0.57;0.57;;;;;;;0.12;85.25;98208.22;4885770;29;20036;-81
2021/01/23 07:51:06;;;;;;;0.80;0.60;;;;;;;0.13;84.97;98220.59;4899319;29;20115;-79
2021/01/23 07:53:34;;;;;;;0.40;0.40;;;;;;;0.05;85.18;98212.97;4867670;29;20122;-79
2021/01/23 07:55:59;;;;;;;0.75;0.75;;;;;;;0.05;85.63;98210.28;4891551;29;20032;-78
2021/01/23 07:58:29;;;;;;;0.60;0.60;;;;;;;0.07;85.74;98220.78;4904432;29;20570;-77
2021/01/23 08:00:57;;;;;;;0.40;0.38;;;;;;;-0.06;84.94;98212.06;4896389;29;20096;-78
2021/01/23 08:03:35;;;;;;;0.30;0.30;;;;;;;-0.10;85.63;98202.03;4885280;29;20103;-77
2021/01/23 08:06:00;;;;;;;0.30;0.30;;;;;;;0.04;85.37;98222.09;4899422;29;20024;-76
2021/01/23 08:08:38;;;;;;;0.40;0.40;;;;;;;-0.01;85.21;98217.47;4902558;29;20506;-77
2021/01/23 08:11:31;;;;;;;0.30;0.15;;;;;;;-0.04;85.73;98215.28;4901768;29;20065;-78
2021/01/23 08:14:06;;;;;;;0.20;0.20;;;;;;;0.05;85.08;98234.47;4892782;29;20028;-77
2021/01/23 08:16:32;;;;;;;;;;;;;;;0.07;85.34;98232.31;4877779;29;20028;-76
2021/01/23 08:19:07;;;;;;;;;;;;;;;0.08;85.25;98228.59;4894496;29;20377;-74
2021/01/23 08:21:33;;;;;;;0.00;0.00;;;;;;;0.05;86.02;98226.41;4888257;29;20377;-74
2021/01/23 08:24:01;;;;;;;0.30;0.30;;;;;;;0.09;85.71;98232.06;4876131;29;20028;-77
2021/01/23 08:26:39;;;;;;;0.20;0.20;;;;;;;0.16;85.72;98236.22;4894894;29;20038;-78
2021/01/23 08:29:04;;;;;;;0.40;0.40;;;;;;;0.26;85.88;98234.69;4901044;29;20415;-77
2021/01/23 08:31:30;;;;;;;0.10;0.10;;;;;;;0.35;86.08;98227.78;4886991;29;20040;-77
2021/01/23 08:33:58;;;;;;;0.30;0.30;;;;;;;0.47;86.36;98239.22;4894995;29;20088;-77
2021/01/23 08:36:31;;;;;;;0.88;0.88;;;;;;;0.48;85.46;98238.19;4905933;29;20493;-76
2021/01/23 08:39:06;;;;;;;4.30;2.53;;;;;;;0.61;85.35;98239.63;4902163;29;20032;-79
2021/01/23 08:41:39;;;;;;;1.75;1.65;;;;;;;0.70;86.07;98245.34;4906815;29;20029;-77
2021/01/23 08:44:15;;;;;;;0.90;0.90;;;;;;;0.74;85.42;98246.47;4911332;29;20016;-78
2021/01/23 08:46:40;;;;;;;;;;;;;;;0.94;86.76;98255.81;4909080;29;20024;-77
2021/01/23 08:49:06;;;;;;;3.17;1.77;;;;;;;0.97;85.67;98244.53;4915020;29;19918;-78
2021/01/23 08:51:33;;;;;;;2.25;2.08;;;;;;;0.99;85.38;98253.16;4897928;29;20116;-78
2021/01/23 08:53:59;;;;;;;2.35;2.15;;;;;;;1.06;85.54;98248.38;4885224;29;20092;-78
2021/01/23 08:56:24;;;;;;;1.40;1.30;;;;;;;1.04;85.67;98239.75;4882975;29;20471;-79
2021/01/23 08:59:07;;;;;;;;;;;;;;;;;;;;;
2021/01/23 09:01:33;;;;;;;1.23;0.52;;;;;;;1.50;84.85;98258.91;4896174;29;20668;-78
2021/01/23 09:03:59;;;;;;;0.45;0.45;;;;;;;1.48;85.94;98234.13;4877224;29;20111;-78
2021/01/23 09:06:34;;;;;;;0.85;0.82;;;;;;;1.74;85.32;98253.13;4885702;29;20056;-79
2021/01/23 09:09:03;;;;;;;4.70;1.10;;;;;;;1.99;84.75;98265.13;4862978;29;20037;-79
2021/01/23 09:11:29;;;;;;;4.18;1.33;;;;;;;2.06;84.71;98265.69;4881289;29;20036;-80
2021/01/23 09:14:04;;;;;;;1.83;1.73;;;;;;;2.03;84.17;98250.03;4893676;29;20040;-83
2021/01/23 09:16:56;;;;;;;;;;;;;;;;;;;;;
2021/01/23 09:19:25;;;;;;;1.80;1.70;;;;;;;2.02;84.21;98232.25;4884770;29;20052;-80
2021/01/23 09:26:03;;;;;;;;;;;;;;;;;;;;;
2021/01/23 09:29:05;;;;;;;2.15;1.70;;;;;;;2.50;83.79;98281.50;5046872;23;20074;-85
2021/01/23 09:31:31;;;;;;;2.63;1.88;;;;;;;2.83;84.72;98263.19;4863040;29;20505;-80
2021/01/23 09:34:35;;;;;;;3.42;1.85;;;;;;;3.54;84.60;98258.88;4861806;29;20097;-84
2021/01/23 09:37:04;;;;;;;1.48;1.45;;;;;;;4.34;83.29;98255.38;4847754;29;20053;-78
2021/01/23 09:39:50;;;;;;;2.03;1.20;;;;;;;5.03;81.40;98296.09;4842421;29;20785;-77
2021/01/23 09:42:16;;;;;;;;;;;;;;;5.20;81.43;98294.94;4838722;29;20048;-78
2021/01/23 10:02:45;;;;;;;;;;;;;;;;;;;;;
2021/01/23 10:22:36;;;;;;;1.45;1.02;;;;;;;4.71;82.46;98289.25;4739906;30;20478;-77
2021/01/23 10:25:02;;;;;;;1.67;0.93;;;;;;;5.21;82.97;98323.63;4796821;29;20101;-78
2021/01/23 10:27:27;;;;;;;0.88;0.88;;;;;;;5.56;82.94;98316.31;4839708;29;20067;-77
2021/01/23 10:29:53;;;;;;;0.90;0.90;;;;;;;6.09;82.25;98342.72;4824686;29;20081;-79
2021/01/23 10:32:20;;;;;;;2.55;1.83;;;;;;;6.60;81.29;98350.25;4840529;29;20396;-78
2021/01/23 10:34:46;;;;;;;1.05;1.05;;;;;;;7.06;81.32;98337.97;4840041;29;20130;-79
2021/01/23 10:37:14;;;;;;;0.80;0.80;;;;;;;7.39;79.80;98357.06;4857780;29;20075;-78
2021/01/23 10:39:42;;;;;;;0.82;0.82;;;;;;;7.57;79.84;98351.91;4844085;29;20027;-76
2021/01/23 10:42:07;;;;;;;1.98;1.88;;;;;;;7.74;78.92;98352.16;4840908;29;20054;-79
2021/01/23 10:44:38;;;;;;;2.42;2.22;;;;;;;7.75;79.52;98364.63;4856299;29;20029;-78
2021/01/23 10:47:05;;;;;;;1.70;1.60;;;;;;;7.88;79.12;98354.09;4849235;29;20030;-79
2021/01/23 10:49:37;;;;;;;2.25;2.05;;;;;;;8.01;78.59;98347.88;4844634;29;20425;-80
2021/01/23 10:52:03;;;;;;;4.53;1.90;;;;;;;8.18;78.13;98361.72;4844086;29;20473;-75
2021/01/23 10:54:28;;;;;;;2.13;2.03;;;;;;;8.08;78.93;98345.56;4845185;29;20030;-78
2021/01/23 10:56:54;;;;;;;2.08;1.98;;;;;;;8.50;79.19;98373.69;4843948;29;20038;-73
2021/01/23 10:59:20;;;;;;;2.50;2.30;;;;;;;8.54;77.99;98358.34;4851561;29;20045;-80
2021/01/23 11:01:52;;;;;;;1.50;1.40;;;;;;;8.77;77.50;98380.22;4853083;29;20049;-80
2021/01/23 11:04:17;;;;;;;3.58;1.67;;;;;;;8.95;77.88;98364.88;4855693;29;20050;-78
2021/01/23 11:06:52;;;;;;;1.10;1.10;;;;;;;9.31;77.01;98374.97;4865335;29;20040;-77
2021/01/23 11:09:23;;;;;;;1.77;1.67;;;;;;;9.60;76.51;98355.47;4851308;29;20126;-77
2021/01/23 11:11:49;;;;;;;1.70;1.60;;;;;;;10.14;75.99;98335.56;4853994;29;20041;-77
2021/01/23 11:14:18;;;;;;;1.13;1.02;;;;;;;10.77;74.81;98368.28;4846599;29;20040;-79
2021/01/23 11:16:43;;;;;;;1.67;1.58;;;;;;;11.45;73.88;98376.13;4841907;29;20029;-79
2021/01/23 11:19:10;;;;;;;2.13;2.03;;;;;;;12.58;72.42;98389.59;4842619;29;20033;-79
2021/01/23 11:22:21;;;;;;;2.97;2.05;;;;;;;13.37;70.09;98396.63;4858456;29;20084;-86
2021/01/23 11:25:09;;;;;;;;;;;;;;;;;;;;;
2021/01/23 11:27:42;;;;;;;1.80;1.70;;;;;;;14.51;66.81;98403.81;4848240;29;20065;-81
2021/01/23 11:30:10;;;;;;;2.00;1.88;;;;;;;14.52;65.77;98388.91;4857835;29;20584;-79
2021/01/23 11:32:45;;;;;;;1.55;1.48;;;;;;;14.51;67.06;98387.31;4864778;29;20492;-81
2021/01/23 11:35:20;;;;;;;1.80;1.70;;;;;;;14.65;66.82;98382.31;4867525;29;20587;-79
2021/01/23 11:38:01;;;;;;;;;;;;;;;;;;;;;
2021/01/23 11:40:27;;;;;;;2.60;2.40;;;;;;;15.33;62.03;98411.97;4848258;29;20108;-77
2021/01/23 11:43:05;;;;;;;;;;;;;;;;;;;;;
2021/01/23 11:45:30;;;;;;;1.65;1.55;;;;;;;15.21;65.36;98400.19;4876736;29;20108;-79
2021/01/23 11:48:21;;;;;;;3.75;3.08;;;;;;;16.40;64.64;98412.63;4868990;29;20060;-78
2021/01/23 11:51:15;;;;;;;2.33;2.15;;;;;;;17.74;62.69;98433.16;4856328;29;20044;-78
2021/01/23 11:53:43;;;;;;;1.77;1.67;;;;;;;18.33;60.33;98408.28;4855194;29;20109;-77
2021/01/23 11:56:23;;;;;;;2.13;1.75;;;;;;;19.28;57.60;98420.53;4856304;29;20033;-79
2021/01/23 11:59:07;;;;;;;2.28;1.45;;;;;;;20.10;57.84;98433.94;4847002;29;20029;-79
2021/01/23 12:01:34;;;;;;;1.50;1.40;;;;;;;21.19;56.26;98447.69;4861752;29;20392;-79
2021/01/23 12:04:10;;;;;;;1.20;1.20;;;;;;;22.06;56.17;98427.50;4844316;29;20112;-78
2021/01/23 12:06:41;;;;;;;3.67;1.60;;;;;;;22.57;51.61;98441.63;4859068;29;20097;-78
2021/01/23 12:09:09;;;;;;;0.90;0.80;;;;;;;22.68;54.79;98420.16;4849816;29;20399;-80
2021/01/23 12:11:39;;;;;;;5.40;1.40;;;;;;;23.39;53.67;98426.13;4865537;29;20033;-80
2021/01/23 12:14:05;;;;;;;3.60;1.38;;;;;;;23.57;48.21;98412.13;4828731;29;20433;-79
2021/01/23 12:16:35;;;;;;;2.20;1.13;;;;;;;23.72;50.91;98433.19;4853878;29;20064;-78
2021/01/23 12:19:01;;;;;;;1.10;1.00;;;;;;;23.86;50.37;98435.19;4858330;29;20645;-77
2021/01/23 12:21:55;;;;;;;1.52;1.00;;;;;;;24.07;48.23;98425.13;4838666;29;20136;-80
2021/01/23 12:24:31;;;;;;;;;;;;;;;;;;;;;
2021/01/23 12:27:10;;;;;;;0.68;0.68;;;;;;;23.88;49.69;98419.63;4861278;29;20116;-79
2021/01/23 12:29:41;;;;;;;0.40;0.40;;;;;;;24.50;53.79;98442.47;4850046;29;20393;-79
2021/01/23 12:32:09;;;;;;;1.85;1.10;;;;;;;25.13;51.22;98438.00;4856031;29;20040;-79
2021/01/23 12:34:35;;;;;;;0.68;0.68;;;;;;;25.44;53.59;98445.34;4850797;29;20030;-79
2021/01/23 12:37:03;;;;;;;0.80;0.80;;;;;;;25.66;48.89;98441.53;4878177;29;20030;-80
2021/01/23 12:39:53;;;;;;;1.63;0.98;;;;;;;25.44;45.17;98420.16;4879519;29;20025;-81
2021/01/23 12:42:27;;;;;;;0.73;0.60;;;;;;;25.40;48.65;98427.00;4867733;29;20029;-78
2021/01/23 13:00:33;;;;;;;;;;;;;;;;;;;;;
2021/01/23 16:04:20;;;;;;;1.27;0.40;;;;;;;7.84;56.95;98485.31;3840846;23;20308;-83
2021/01/23 16:06:48;;;;;;;3.00;0.60;;;;;;;7.58;55.98;98456.84;4917905;29;20051;-83
2021/01/23 16:09:17;;;;;;;1.85;0.73;;;;;;;7.29;57.09;98449.66;4905708;29;20088;-83